Time;durP1;ratioP1;P1;durP2;ratioP2;P2;SDS_P1;SDS_P2;PMS_P1;PMS_P2;Temp;Humidity;BMP_temperature;BMP_pressure;BME280_temperature;BME280_humidity;BME280_pressure;Samples;Min_cycle;Max_cycle;Signal;HPM_P1;HPM_P2
2021/12/07 00:01:47;;;;;;;;;15.50;12.75;;;;;;;;5026738;28;49718;-64
2021/12/07 00:04:12;;;;;;;;;8.00;8.00;;;;;;;;5027133;28;49967;-64
2021/12/07 00:06:38;;;;;;;;;12.75;9.50;;;;;;;;5026565;28;50748;-64
2021/12/07 00:09:05;;;;;;;;;6.00;2.00;;;;;;;;5026738;28;49775;-65
2021/12/07 00:11:30;;;;;;;;;6.00;3.50;;;;;;;;5026214;28;49549;-64
2021/12/07 00:13:57;;;;;;;;;5.75;4.75;;;;;;;;5026251;28;49976;-64
2021/12/07 00:16:24;;;;;;;;;3.50;3.50;;;;;;;;5025849;28;50393;-64
2021/12/07 00:18:49;;;;;;;;;1.00;1.00;;;;;;;;5026744;28;49823;-64
2021/12/07 00:21:16;;;;;;;;;7.00;2.75;;;;;;;;5026589;28;49762;-64
2021/12/07 00:23:41;;;;;;;;;1.00;1.00;;;;;;;;5030068;28;49860;-64
2021/12/07 00:26:07;;;;;;;;;2.75;2.75;;;;;;;;5029344;28;49616;-64
2021/12/07 00:28:36;;;;;;;;;6.25;5.75;;;;;;;;5029483;28;49729;-64
2021/12/07 00:31:11;;;;;;;;;6.00;2.00;;;;;;;;5029624;28;49869;-64
2021/12/07 00:33:49;;;;;;;;;2.00;2.00;;;;;;;;5029772;28;49831;-63
2021/12/07 00:36:14;;;;;;;;;6.00;6.00;;;;;;;;5011294;28;50388;-64
2021/12/07 00:38:39;;;;;;;;;1.50;1.50;;;;;;;;5029464;28;50065;-65
2021/12/07 00:41:05;;;;;;;;;2.00;2.00;;;;;;;;5029705;28;49694;-63
2021/12/07 00:43:32;;;;;;;;;7.50;1.75;;;;;;;;5029751;28;49905;-64
2021/12/07 00:45:58;;;;;;;;;3.50;2.00;;;;;;;;5029187;28;50390;-63
2021/12/07 00:48:25;;;;;;;;;5.00;1.75;;;;;;;;5029411;28;49645;-64
2021/12/07 00:50:50;;;;;;;;;1.00;1.00;;;;;;;;5011178;28;49694;-64
2021/12/07 00:53:16;;;;;;;;;3.50;2.25;;;;;;;;5029694;28;49591;-64
2021/12/07 00:55:45;;;;;;;;;2.25;1.00;;;;;;;;5029058;28;50831;-64
2021/12/07 00:58:18;;;;;;;;;2.75;2.75;;;;;;;;5029427;28;49637;-63
2021/12/07 01:00:44;;;;;;;;;1.75;1.75;;;;;;;;5029305;28;49607;-64
2021/12/07 01:03:10;;;;;;;;;2.00;2.00;;;;;;;;5029310;28;49856;-64
2021/12/07 01:05:36;;;;;;;;;2.25;1.00;;;;;;;;5028955;28;49876;-64
2021/12/07 01:26:39;;;;;;;;;1.00;0.00;;;;;;;;5028808;28;49801;-64
2021/12/07 01:29:05;;;;;;;;;3.00;2.00;;;;;;;;5029077;28;49728;-63
2021/12/07 01:31:40;;;;;;;;;1.00;1.00;;;;;;;;5029189;28;49803;-64
2021/12/07 01:34:39;;;;;;;;;2.00;2.00;;;;;;;;5029170;28;49746;-63
2021/12/07 01:37:11;;;;;;;;;1.00;1.00;;;;;;;;5027730;28;49734;-63
2021/12/07 01:47:45;;;;;;;;;1.50;1.50;;;;;;;;5028687;28;49780;-63
2021/12/07 01:50:31;;;;;;;;;3.00;1.00;;;;;;;;5028575;28;49601;-64
2021/12/07 01:53:17;;;;;;;;;3.00;2.00;;;;;;;;5010799;28;49614;-64
2021/12/07 02:01:05;;;;;;;;;1.00;1.00;;;;;;;;5028452;28;49701;-63
2021/12/07 02:03:31;;;;;;;;;1.00;1.00;;;;;;;;5028546;28;49823;-63
2021/12/07 02:05:56;;;;;;;;;1.50;1.50;;;;;;;;5028631;28;49842;-70
2021/12/07 02:08:22;;;;;;;;;0.00;0.00;;;;;;;;5010453;28;50633;-70
2021/12/07 02:10:47;;;;;;;;;0.75;0.75;;;;;;;;5028427;28;49993;-64
2021/12/07 02:14:01;;;;;;;;;2.00;1.75;;;;;;;;5028503;28;49571;-63
2021/12/07 02:16:04;;;;;;;;;2.50;2.00;;;;;;;;5028257;28;49761;-64
2021/12/07 02:18:29;;;;;;;;;1.50;1.50;;;;;;;;5028143;28;50720;-64
2021/12/07 02:20:55;;;;;;;;;0.75;0.00;;;;;;;;5028150;28;49576;-64
2021/12/07 02:23:20;;;;;;;;;1.00;0.00;;;;;;;;5028405;28;49928;-64
2021/12/07 02:25:46;;;;;;;;;2.00;1.00;;;;;;;;5028278;28;49683;-64
2021/12/07 02:28:14;;;;;;;;;0.00;0.00;;;;;;;;5028237;28;49841;-64
2021/12/07 02:30:40;;;;;;;;;0.75;0.75;;;;;;;;5028333;28;49747;-64
2021/12/07 02:33:06;;;;;;;;;0.00;0.00;;;;;;;;5028309;28;49622;-63
2021/12/07 02:35:32;;;;;;;;;1.00;1.00;;;;;;;;5028124;27;49704;-64
2021/12/07 02:37:58;;;;;;;;;0.50;0.00;;;;;;;;5027940;28;51028;-64
2021/12/07 02:40:24;;;;;;;;;0.50;0.50;;;;;;;;5028287;28;49762;-65
2021/12/07 02:42:49;;;;;;;;;1.00;1.00;;;;;;;;5009968;28;49901;-65
2021/12/07 02:45:16;;;;;;;;;0.00;0.00;;;;;;;;5027573;28;49738;-64
2021/12/07 02:47:41;;;;;;;;;3.00;1.00;;;;;;;;5027979;28;50548;-63
2021/12/07 02:50:07;;;;;;;;;2.50;1.25;;;;;;;;5027723;28;49744;-63
2021/12/07 02:52:32;;;;;;;;;0.00;0.00;;;;;;;;5028230;28;49694;-64
2021/12/07 02:54:57;;;;;;;;;1.00;1.00;;;;;;;;5028253;28;50224;-64
2021/12/07 02:57:23;;;;;;;;;0.25;0.25;;;;;;;;5027712;28;50437;-64
2021/12/07 02:59:57;;;;;;;;;1.00;1.00;;;;;;;;5027846;28;49908;-64
2021/12/07 03:02:22;;;;;;;;;0.00;0.00;;;;;;;;5009773;28;49761;-63
2021/12/07 03:05:17;;;;;;;;;0.75;0.50;;;;;;;;5027077;28;50098;-63
2021/12/07 03:26:34;;;;;;;;;2.00;1.00;;;;;;;;4988273;28;49743;-64
2021/12/07 03:29:01;;;;;;;;;2.00;2.00;;;;;;;;4987786;28;50471;-64
2021/12/07 03:31:26;;;;;;;;;0.00;0.00;;;;;;;;4987790;28;49660;-64
2021/12/07 03:33:53;;;;;;;;;1.25;1.00;;;;;;;;4987725;28;49953;-64
2021/12/07 03:36:19;;;;;;;;;1.25;1.25;;;;;;;;4987627;28;49989;-64
2021/12/07 03:38:44;;;;;;;;;2.00;2.00;;;;;;;;4987554;28;49651;-63
2021/12/07 03:41:10;;;;;;;;;0.75;0.75;;;;;;;;4987784;28;49707;-65
2021/12/07 03:43:35;;;;;;;;;5.50;2.50;;;;;;;;4987664;28;49988;-66
2021/12/07 03:46:01;;;;;;;;;2.50;1.00;;;;;;;;4987834;28;49774;-68
2021/12/07 03:48:26;;;;;;;;;4.25;2.75;;;;;;;;4987292;28;50369;-69
2021/12/07 03:50:52;;;;;;;;;6.50;3.50;;;;;;;;4987308;28;49765;-68
2021/12/07 03:53:17;;;;;;;;;2.00;1.50;;;;;;;;4987471;28;49942;-68
2021/12/07 03:55:42;;;;;;;;;2.00;2.00;;;;;;;;4986271;28;49993;-69
2021/12/07 03:58:08;;;;;;;;;6.25;2.25;;;;;;;;4989895;28;50422;-70
2021/12/07 04:00:35;;;;;;;;;1.25;1.25;;;;;;;;4991859;27;49528;-66
2021/12/07 04:03:03;;;;;;;;;2.00;2.00;;;;;;;;4990334;28;49802;-69
2021/12/07 04:05:29;;;;;;;;;3.00;2.00;;;;;;;;4990575;28;49659;-70
2021/12/07 04:07:54;;;;;;;;;2.75;2.00;;;;;;;;4990335;28;49926;-64
2021/12/07 04:10:20;;;;;;;;;2.25;2.25;;;;;;;;4990120;28;50042;-63
2021/12/07 04:12:45;;;;;;;;;0.75;0.75;;;;;;;;4990566;28;50114;-63
2021/12/07 04:15:13;;;;;;;;;5.00;3.00;;;;;;;;4990667;28;49837;-63
2021/12/07 04:17:39;;;;;;;;;2.00;2.00;;;;;;;;4990246;28;49733;-63
2021/12/07 04:20:06;;;;;;;;;2.25;2.00;;;;;;;;4988832;28;49634;-62
2021/12/07 04:22:31;;;;;;;;;0.25;0.00;;;;;;;;4990370;27;49572;-63
2021/12/07 04:24:56;;;;;;;;;0.25;0.25;;;;;;;;5007164;28;49736;-63
2021/12/07 04:27:21;;;;;;;;;3.00;1.75;;;;;;;;5029656;28;50774;-63
2021/12/07 04:29:47;;;;;;;;;1.50;1.50;;;;;;;;5029755;28;49825;-65
2021/12/07 04:32:12;;;;;;;;;2.25;1.25;;;;;;;;5029617;28;49611;-62
2021/12/07 04:34:37;;;;;;;;;1.00;1.00;;;;;;;;5029730;28;49593;-63
2021/12/07 04:37:02;;;;;;;;;2.00;1.75;;;;;;;;5029618;28;49832;-63
2021/12/07 04:39:28;;;;;;;;;2.50;1.50;;;;;;;;5029731;28;49673;-63
2021/12/07 04:41:53;;;;;;;;;2.00;2.00;;;;;;;;5029664;28;49571;-62
2021/12/07 04:44:21;;;;;;;;;3.00;1.75;;;;;;;;5029745;28;49671;-64
2021/12/07 04:47:04;;;;;;;;;3.00;1.50;;;;;;;;5029308;28;49815;-64
2021/12/07 04:57:47;;;;;;;;;2.75;2.75;;;;;;;;5029351;28;49929;-65
2021/12/07 05:00:12;;;;;;;;;2.25;1.00;;;;;;;;5028603;28;49578;-63
2021/12/07 05:02:39;;;;;;;;;1.75;0.75;;;;;;;;5029016;28;49699;-64
2021/12/07 05:05:05;;;;;;;;;1.00;1.00;;;;;;;;5029302;28;50108;-63
2021/12/07 05:07:36;;;;;;;;;7.50;1.00;;;;;;;;5028726;28;50684;-64
2021/12/07 05:12:54;;;;;;;;;2.50;2.00;;;;;;;;5029333;28;49728;-63
2021/12/07 05:18:22;;;;;;;;;8.00;2.75;;;;;;;;5028854;28;50639;-65
2021/12/07 05:39:47;;;;;;;;;3.00;2.00;;;;;;;;5028731;28;49846;-63
2021/12/07 05:42:12;;;;;;;;;2.00;1.75;;;;;;;;5028806;28;49736;-62
2021/12/07 05:44:38;;;;;;;;;1.00;1.00;;;;;;;;5028864;28;49686;-63
2021/12/07 05:47:03;;;;;;;;;1.25;1.25;;;;;;;;5028921;28;49658;-63
2021/12/07 05:49:28;;;;;;;;;1.25;1.25;;;;;;;;5028343;28;50503;-64
2021/12/07 05:51:54;;;;;;;;;5.25;3.00;;;;;;;;5028865;28;49712;-64
2021/12/07 05:54:19;;;;;;;;;2.25;1.00;;;;;;;;5028832;28;49837;-64
2021/12/07 05:56:44;;;;;;;;;0.75;0.75;;;;;;;;5028922;28;49638;-63
2021/12/07 05:59:09;;;;;;;;;1.25;0.00;;;;;;;;5028402;28;50495;-64
2021/12/07 06:01:35;;;;;;;;;2.50;1.25;;;;;;;;5028666;28;49924;-64
2021/12/07 06:04:00;;;;;;;;;5.25;3.75;;;;;;;;5028362;28;49822;-64
2021/12/07 06:06:25;;;;;;;;;0.25;0.00;;;;;;;;5028554;28;49959;-64
2021/12/07 06:08:50;;;;;;;;;4.25;4.25;;;;;;;;5028383;28;49899;-64
2021/12/07 06:11:15;;;;;;;;;5.00;3.00;;;;;;;;5028665;28;49792;-63
2021/12/07 06:13:41;;;;;;;;;2.75;2.75;;;;;;;;5028522;28;49925;-63
2021/12/07 06:16:08;;;;;;;;;5.25;2.00;;;;;;;;5010560;28;49705;-64
2021/12/07 06:18:34;;;;;;;;;3.00;2.00;;;;;;;;5028073;28;49709;-63
2021/12/07 06:20:59;;;;;;;;;1.00;1.00;;;;;;;;5027264;28;49718;-64
2021/12/07 06:23:24;;;;;;;;;6.00;2.75;;;;;;;;5028421;28;50035;-74
2021/12/07 06:25:49;;;;;;;;;3.25;3.25;;;;;;;;5011099;27;49958;-64
2021/12/07 06:28:16;;;;;;;;;2.25;2.25;;;;;;;;5028323;28;50180;-70
2021/12/07 06:30:42;;;;;;;;;2.25;2.25;;;;;;;;5028324;28;49794;-63
2021/12/07 06:33:07;;;;;;;;;5.25;4.75;;;;;;;;5028508;28;49850;-63
2021/12/07 06:35:33;;;;;;;;;5.75;5.75;;;;;;;;5028150;28;49967;-68
2021/12/07 06:37:58;;;;;;;;;8.50;6.75;;;;;;;;5028020;28;50363;-65
2021/12/07 06:40:23;;;;;;;;;12.50;8.50;;;;;;;;5028215;28;49756;-65
2021/12/07 06:42:48;;;;;;;;;8.50;6.50;;;;;;;;5028179;28;49603;-63
2021/12/07 06:45:14;;;;;;;;;7.75;6.00;;;;;;;;5028432;28;49843;-68
2021/12/07 06:47:39;;;;;;;;;10.25;7.00;;;;;;;;5027974;28;50392;-69
2021/12/07 06:50:05;;;;;;;;;4.00;4.00;;;;;;;;5027857;28;49627;-65
2021/12/07 06:52:31;;;;;;;;;10.25;7.25;;;;;;;;5028623;27;49784;-66
2021/12/07 06:54:58;;;;;;;;;9.25;6.25;;;;;;;;5028190;28;49999;-65
2021/12/07 06:57:23;;;;;;;;;5.75;5.75;;;;;;;;5009897;28;50771;-62
2021/12/07 06:59:48;;;;;;;;;9.25;9.25;;;;;;;;5027878;28;49626;-73
2021/12/07 07:02:13;;;;;;;;;10.50;9.25;;;;;;;;5027894;28;49668;-73
2021/12/07 07:04:39;;;;;;;;;5.75;3.50;;;;;;;;5027905;28;49791;-71
2021/12/07 07:07:04;;;;;;;;;7.00;5.50;;;;;;;;5033797;28;50301;-76
2021/12/07 07:09:29;;;;;;;;;3.00;3.00;;;;;;;;5028119;28;49733;-70
2021/12/07 07:11:54;;;;;;;;;8.50;8.50;;;;;;;;5029689;28;50045;-71
2021/12/07 07:14:19;;;;;;;;;10.25;9.00;;;;;;;;5030928;28;49677;-66
2021/12/07 07:16:45;;;;;;;;;5.25;5.25;;;;;;;;5035601;28;50082;-70
2021/12/07 07:19:10;;;;;;;;;10.25;9.00;;;;;;;;5036466;28;49686;-66
2021/12/07 07:21:35;;;;;;;;;10.25;10.25;;;;;;;;5021856;28;49248;-63
2021/12/07 07:24:00;;;;;;;;;13.25;11.00;;;;;;;;5038796;28;49592;-65
2021/12/07 07:26:26;;;;;;;;;9.75;9.00;;;;;;;;5041024;28;49628;-65
2021/12/07 07:28:51;;;;;;;;;9.75;6.75;;;;;;;;5044708;28;49306;-65
2021/12/07 07:31:16;;;;;;;;;16.00;12.00;;;;;;;;5029391;28;49461;-65
2021/12/07 07:33:41;;;;;;;;;13.25;9.00;;;;;;;;5051540;28;49236;-66
2021/12/07 07:36:07;;;;;;;;;10.00;10.00;;;;;;;;5044188;28;49575;-66
2021/12/07 07:38:32;;;;;;;;;11.25;10.50;;;;;;;;5030539;28;49740;-71
2021/12/07 07:40:58;;;;;;;;;13.50;13.50;;;;;;;;5046396;28;49699;-72
2021/12/07 07:43:24;;;;;;;;;17.00;14.50;;;;;;;;5041420;28;50165;-69
2021/12/07 07:45:50;;;;;;;;;8.25;7.00;;;;;;;;5033746;28;49852;-69
2021/12/07 07:48:16;;;;;;;;;12.00;10.75;;;;;;;;5033304;28;49735;-72
2021/12/07 07:50:42;;;;;;;;;14.75;13.75;;;;;;;;5033253;28;49786;-73
2021/12/07 07:53:07;;;;;;;;;9.25;9.00;;;;;;;;5033737;28;49556;-61
2021/12/07 07:55:35;;;;;;;;;13.50;12.00;;;;;;;;5033704;28;50720;-61
2021/12/07 07:58:00;;;;;;;;;14.25;10.75;;;;;;;;5033458;28;49934;-63
2021/12/07 08:00:25;;;;;;;;;10.50;8.00;;;;;;;;5035340;28;49587;-62
2021/12/07 08:02:52;;;;;;;;;9.50;9.50;;;;;;;;5041699;28;49664;-66
2021/12/07 08:05:17;;;;;;;;;14.00;10.50;;;;;;;;5035556;28;50228;-74
2021/12/07 08:07:47;;;;;;;;;11.50;11.50;;;;;;;;5037392;28;49678;-61
2021/12/07 08:10:13;;;;;;;;;10.00;10.00;;;;;;;;5039256;28;49671;-61
2021/12/07 08:12:38;;;;;;;;;16.25;14.00;;;;;;;;5035811;28;50000;-64
2021/12/07 08:15:04;;;;;;;;;23.25;17.00;;;;;;;;5038141;28;50393;-62
2021/12/07 08:17:29;;;;;;;;;10.75;7.00;;;;;;;;5048813;28;49778;-62
2021/12/07 08:19:54;;;;;;;;;17.50;17.00;;;;;;;;5049870;28;49397;-60
2021/12/07 08:22:19;;;;;;;;;18.75;17.50;;;;;;;;5035945;28;49649;-68
2021/12/07 08:24:45;;;;;;;;;22.00;17.50;;;;;;;;5033353;28;50879;-64
2021/12/07 08:27:11;;;;;;;;;23.25;20.75;;;;;;;;5036703;27;50345;-62
2021/12/07 08:29:36;;;;;;;;;24.25;20.75;;;;;;;;5054645;28;49664;-62
2021/12/07 08:32:02;;;;;;;;;23.75;20.00;;;;;;;;5053557;28;49780;-61
2021/12/07 08:34:27;;;;;;;;;28.00;24.50;;;;;;;;5072010;28;50329;-62
2021/12/07 08:36:52;;;;;;;;;20.00;18.00;;;;;;;;5050495;27;49719;-62
2021/12/07 08:39:17;;;;;;;;;25.75;22.50;;;;;;;;5055099;28;49868;-61
2021/12/07 08:41:42;;;;;;;;;25.00;23.25;;;;;;;;5054290;27;49646;-61
2021/12/07 08:44:08;;;;;;;;;30.50;23.50;;;;;;;;5040487;27;50942;-62
2021/12/07 08:46:34;;;;;;;;;22.50;20.75;;;;;;;;5049740;28;49855;-61
2021/12/07 08:48:59;;;;;;;;;21.75;21.00;;;;;;;;5051496;28;49643;-61
2021/12/07 08:51:24;;;;;;;;;24.50;21.25;;;;;;;;5063644;28;49981;-62
2021/12/07 08:54:02;;;;;;;;;28.25;24.50;;;;;;;;5036705;28;49940;-61
2021/12/07 09:01:56;;;;;;;;;26.50;23.00;;;;;;;;5051054;28;49708;-61
2021/12/07 09:04:22;;;;;;;;;23.00;22.00;;;;;;;;5052705;28;49774;-63
2021/12/07 09:06:49;;;;;;;;;34.50;26.00;;;;;;;;5048874;28;49791;-62
2021/12/07 09:09:14;;;;;;;;;23.75;22.75;;;;;;;;5049326;28;49718;-62
2021/12/07 09:11:39;;;;;;;;;23.00;20.25;;;;;;;;5047480;28;49601;-62
2021/12/07 09:14:05;;;;;;;;;21.50;18.50;;;;;;;;5048378;28;49809;-62
2021/12/07 09:16:30;;;;;;;;;25.25;25.25;;;;;;;;5048702;28;49885;-61
2021/12/07 09:18:55;;;;;;;;;23.75;19.50;;;;;;;;5049012;28;49659;-62
2021/12/07 09:21:20;;;;;;;;;17.50;17.00;;;;;;;;5048107;28;49718;-62
2021/12/07 09:23:46;;;;;;;;;22.75;20.50;;;;;;;;5048589;28;49831;-65
2021/12/07 09:26:11;;;;;;;;;15.00;12.00;;;;;;;;5048792;28;49683;-63
2021/12/07 09:28:38;;;;;;;;;21.75;15.50;;;;;;;;5034973;28;49822;-62
2021/12/07 09:31:05;;;;;;;;;19.50;16.25;;;;;;;;5033512;28;49457;-62
2021/12/07 09:33:30;;;;;;;;;20.75;19.00;;;;;;;;5026825;28;49711;-63
2021/12/07 09:35:56;;;;;;;;;14.75;10.75;;;;;;;;5028640;28;49730;-63
2021/12/07 09:38:22;;;;;;;;;15.75;15.00;;;;;;;;5049039;28;49885;-64
2021/12/07 09:40:49;;;;;;;;;14.50;12.25;;;;;;;;5051048;28;50218;-62
2021/12/07 09:43:14;;;;;;;;;15.25;14.75;;;;;;;;5057302;28;51321;-62
2021/12/07 09:45:40;;;;;;;;;24.50;19.25;;;;;;;;5048618;28;49786;-63
2021/12/07 09:48:07;;;;;;;;;21.25;18.50;;;;;;;;5046886;28;49621;-61
2021/12/07 09:50:34;;;;;;;;;23.25;18.00;;;;;;;;5029425;28;49925;-62
2021/12/07 09:53:00;;;;;;;;;24.75;18.25;;;;;;;;5028265;28;50342;-63
2021/12/07 09:55:28;;;;;;;;;11.75;11.75;;;;;;;;5025374;28;49665;-62
2021/12/07 09:57:53;;;;;;;;;17.50;15.25;;;;;;;;5028610;28;49873;-62
2021/12/07 10:00:25;;;;;;;;;19.50;12.50;;;;;;;;5028723;28;49964;-63
2021/12/07 10:02:50;;;;;;;;;14.75;13.00;;;;;;;;5028499;28;50421;-63
2021/12/07 10:05:19;;;;;;;;;12.50;12.00;;;;;;;;5031478;28;50010;-63
2021/12/07 10:07:45;;;;;;;;;16.75;13.50;;;;;;;;5030336;28;49782;-62
2021/12/07 10:10:19;;;;;;;;;19.75;18.75;;;;;;;;5011298;28;49878;-66
2021/12/07 10:12:44;;;;;;;;;15.50;14.50;;;;;;;;5027790;28;50435;-66
2021/12/07 10:15:10;;;;;;;;;11.75;10.25;;;;;;;;5026992;28;49771;-67
2021/12/07 10:17:37;;;;;;;;;13.25;11.50;;;;;;;;5028097;28;49906;-69
2021/12/07 10:20:22;;;;;;;;;18.75;15.75;;;;;;;;5030907;28;49778;-63
2021/12/07 10:22:48;;;;;;;;;16.50;13.25;;;;;;;;5047609;28;49786;-67
2021/12/07 10:25:23;;;;;;;;;14.75;14.75;;;;;;;;5046962;28;49801;-62
2021/12/07 10:27:49;;;;;;;;;13.25;12.50;;;;;;;;5027638;28;49554;-61
2021/12/07 10:30:18;;;;;;;;;16.25;15.25;;;;;;;;5028868;28;49896;-62
2021/12/07 10:33:01;;;;;;;;;17.50;15.00;;;;;;;;5028281;28;50678;-62
2021/12/07 10:35:36;;;;;;;;;15.50;15.50;;;;;;;;5030039;28;49689;-62
2021/12/07 10:38:06;;;;;;;;;11.75;11.00;;;;;;;;5033452;28;49624;-63
2021/12/07 10:40:31;;;;;;;;;16.25;16.25;;;;;;;;5030425;28;49772;-62
2021/12/07 10:42:56;;;;;;;;;16.50;15.75;;;;;;;;5028535;28;49798;-62
2021/12/07 10:45:26;;;;;;;;;12.25;12.00;;;;;;;;5026518;28;49764;-62
2021/12/07 10:47:51;;;;;;;;;16.00;14.75;;;;;;;;5028369;28;49509;-62
2021/12/07 10:50:18;;;;;;;;;17.00;13.75;;;;;;;;5042273;27;50027;-62
2021/12/07 10:52:45;;;;;;;;;22.50;20.50;;;;;;;;5049033;28;50584;-62
2021/12/07 10:55:17;;;;;;;;;15.50;11.75;;;;;;;;5056014;28;50032;-62
2021/12/07 10:57:47;;;;;;;;;18.25;15.25;;;;;;;;5068864;28;50217;-64
2021/12/07 11:00:23;;;;;;;;;13.75;10.75;;;;;;;;5041593;28;49687;-62
2021/12/07 11:03:05;;;;;;;;;12.50;12.25;;;;;;;;5028969;28;50491;-62
2021/12/07 11:05:32;;;;;;;;;17.00;11.75;;;;;;;;5039737;28;50307;-63
2021/12/07 11:07:58;;;;;;;;;14.75;13.75;;;;;;;;5078857;27;49671;-63
2021/12/07 11:10:30;;;;;;;;;14.75;14.75;;;;;;;;5009979;28;49738;-64
2021/12/07 11:13:12;;;;;;;;;32.75;19.50;;;;;;;;5029161;28;50365;-62
2021/12/07 11:15:49;;;;;;;;;17.50;15.50;;;;;;;;5027325;28;49617;-63
2021/12/07 11:18:16;;;;;;;;;17.00;17.00;;;;;;;;5027383;28;49704;-63
2021/12/07 11:20:41;;;;;;;;;20.00;15.25;;;;;;;;5029191;28;50075;-62
2021/12/07 11:23:06;;;;;;;;;17.25;15.25;;;;;;;;5033442;27;49791;-63
2021/12/07 11:29:39;;;;;;;;;16.40;13.80;;;;;;;;5062327;28;49291;-64
2021/12/07 11:31:30;;;;;;;;;22.00;19.00;;;;;;;;5053519;28;49884;-65
2021/12/07 11:34:07;;;;;;;;;15.50;12.00;;;;;;;;5038489;28;50732;-65
2021/12/07 11:36:34;;;;;;;;;23.00;18.50;;;;;;;;5046859;28;49721;-65
2021/12/07 11:39:00;;;;;;;;;15.00;15.00;;;;;;;;5046769;28;49742;-65
2021/12/07 11:41:31;;;;;;;;;18.75;14.50;;;;;;;;5047143;28;49811;-65
2021/12/07 11:43:59;;;;;;;;;14.00;12.00;;;;;;;;5047247;28;50501;-63
2021/12/07 11:46:25;;;;;;;;;15.75;11.75;;;;;;;;5047228;28;49623;-65
2021/12/07 11:49:02;;;;;;;;;12.50;12.50;;;;;;;;5047119;28;49717;-65
2021/12/07 11:51:28;;;;;;;;;10.75;10.50;;;;;;;;5045507;28;49937;-67
2021/12/07 11:53:53;;;;;;;;;10.75;9.50;;;;;;;;5045613;28;50130;-66
2021/12/07 11:56:18;;;;;;;;;11.50;11.00;;;;;;;;5045347;28;50029;-63
2021/12/07 11:58:43;;;;;;;;;12.25;11.50;;;;;;;;5045399;28;49958;-64
2021/12/07 12:01:08;;;;;;;;;11.00;11.00;;;;;;;;5045150;28;49793;-64
2021/12/07 12:03:34;;;;;;;;;15.75;15.75;;;;;;;;5045032;28;49982;-63
2021/12/07 12:05:59;;;;;;;;;16.75;13.75;;;;;;;;5046671;28;50033;-63
2021/12/07 12:08:25;;;;;;;;;16.25;11.50;;;;;;;;5047325;28;49673;-63
2021/12/07 12:11:00;;;;;;;;;6.75;6.75;;;;;;;;5047131;28;49559;-63
2021/12/07 12:13:28;;;;;;;;;13.50;10.25;;;;;;;;5046768;28;49671;-64
2021/12/07 12:16:12;;;;;;;;;8.75;8.50;;;;;;;;5046770;28;49764;-63
2021/12/07 12:18:56;;;;;;;;;13.50;8.75;;;;;;;;5049215;28;49796;-64
2021/12/07 12:21:30;;;;;;;;;9.50;9.50;;;;;;;;5049936;28;49761;-63
2021/12/07 12:23:55;;;;;;;;;10.00;10.00;;;;;;;;5049784;28;50234;-64
2021/12/07 12:26:22;;;;;;;;;10.25;10.25;;;;;;;;5050307;28;50066;-64
2021/12/07 12:28:49;;;;;;;;;9.00;9.00;;;;;;;;5050291;28;49838;-65
2021/12/07 12:31:15;;;;;;;;;12.00;8.00;;;;;;;;5049803;28;49752;-64
2021/12/07 12:33:48;;;;;;;;;11.50;10.25;;;;;;;;5049588;28;49692;-64
2021/12/07 12:36:14;;;;;;;;;13.75;10.75;;;;;;;;5049243;28;49652;-65
2021/12/07 12:38:42;;;;;;;;;7.50;6.25;;;;;;;;5049597;28;49642;-64
2021/12/07 12:41:09;;;;;;;;;11.25;10.00;;;;;;;;5050390;28;49611;-64
2021/12/07 12:43:38;;;;;;;;;7.75;7.75;;;;;;;;5049513;28;50692;-64
2021/12/07 12:46:04;;;;;;;;;9.50;9.00;;;;;;;;5049755;28;49591;-65
2021/12/07 12:48:30;;;;;;;;;13.50;11.50;;;;;;;;5049751;28;49772;-64
2021/12/07 12:50:56;;;;;;;;;14.25;8.25;;;;;;;;5049475;28;49565;-65
2021/12/07 12:53:25;;;;;;;;;10.75;10.00;;;;;;;;5049469;28;49970;-64
2021/12/07 12:55:53;;;;;;;;;11.00;8.00;;;;;;;;5049395;28;49865;-65
2021/12/07 12:58:37;;;;;;;;;10.25;9.00;;;;;;;;5049710;28;49666;-65
2021/12/07 13:01:14;;;;;;;;;8.25;8.25;;;;;;;;5049729;28;49796;-65
2021/12/07 13:03:39;;;;;;;;;8.25;7.00;;;;;;;;5049195;28;50301;-66
2021/12/07 13:06:04;;;;;;;;;9.25;5.50;;;;;;;;5048849;28;49860;-65
2021/12/07 13:08:29;;;;;;;;;7.00;5.00;;;;;;;;5049500;28;49663;-65
2021/12/07 13:10:56;;;;;;;;;7.75;7.25;;;;;;;;5049413;28;49906;-65
2021/12/07 13:13:26;;;;;;;;;6.50;6.50;;;;;;;;5049257;28;49635;-64
2021/12/07 13:15:51;;;;;;;;;5.50;5.50;;;;;;;;5049331;28;49726;-66
2021/12/07 13:18:21;;;;;;;;;8.00;5.50;;;;;;;;5049229;28;49718;-64
2021/12/07 13:20:50;;;;;;;;;10.25;5.00;;;;;;;;5050012;28;49931;-65
2021/12/07 13:23:15;;;;;;;;;8.00;6.00;;;;;;;;5048890;28;49658;-66
2021/12/07 13:25:51;;;;;;;;;8.00;6.00;;;;;;;;5049092;28;49831;-65
2021/12/07 13:28:34;;;;;;;;;5.75;5.25;;;;;;;;5048974;28;49740;-65
2021/12/07 13:31:02;;;;;;;;;8.50;5.50;;;;;;;;5049352;28;50093;-65
2021/12/07 13:33:31;;;;;;;;;2.00;2.00;;;;;;;;5048825;28;49539;-64
2021/12/07 13:35:57;;;;;;;;;6.00;6.00;;;;;;;;5048794;28;49748;-64
2021/12/07 13:38:24;;;;;;;;;4.75;4.75;;;;;;;;5031187;28;49826;-66
2021/12/07 13:40:50;;;;;;;;;7.25;4.75;;;;;;;;5041415;27;49857;-65
2021/12/07 13:43:29;;;;;;;;;8.50;5.25;;;;;;;;5039499;28;50380;-63
2021/12/07 13:46:14;;;;;;;;;10.00;6.00;;;;;;;;5031209;28;49685;-63
2021/12/07 13:48:40;;;;;;;;;6.75;5.25;;;;;;;;5063732;28;49883;-64
2021/12/07 13:51:05;;;;;;;;;7.00;7.00;;;;;;;;5067193;28;49867;-65
2021/12/07 13:53:30;;;;;;;;;9.25;6.50;;;;;;;;5068578;28;50676;-63
2021/12/07 13:55:59;;;;;;;;;9.75;8.00;;;;;;;;5029870;28;49928;-64
2021/12/07 13:58:25;;;;;;;;;4.25;4.25;;;;;;;;5028920;28;49934;-64
2021/12/07 14:00:51;;;;;;;;;8.50;7.00;;;;;;;;5061631;28;49699;-64
2021/12/07 14:03:19;;;;;;;;;4.75;4.00;;;;;;;;5068145;28;49862;-65
2021/12/07 14:05:44;;;;;;;;;10.75;7.00;;;;;;;;5062679;28;49703;-65
2021/12/07 14:08:11;;;;;;;;;8.00;6.50;;;;;;;;5049149;27;49705;-66
2021/12/07 14:10:45;;;;;;;;;6.50;6.50;;;;;;;;5047758;27;49851;-64
2021/12/07 14:13:11;;;;;;;;;8.25;5.75;;;;;;;;5036878;28;49754;-64
2021/12/07 14:15:37;;;;;;;;;6.25;4.25;;;;;;;;5049201;28;49649;-64
2021/12/07 14:18:08;;;;;;;;;6.00;4.25;;;;;;;;5050894;28;49739;-64
2021/12/07 14:20:40;;;;;;;;;6.25;6.00;;;;;;;;5068697;28;49854;-64
2021/12/07 14:23:17;;;;;;;;;8.50;4.00;;;;;;;;5066707;28;50914;-66
2021/12/07 14:26:05;;;;;;;;;8.00;2.75;;;;;;;;5068358;27;49615;-66
2021/12/07 14:28:50;;;;;;;;;8.50;6.50;;;;;;;;5054717;28;49798;-66
2021/12/07 14:31:23;;;;;;;;;9.00;8.25;;;;;;;;5112906;27;49540;-66
2021/12/07 14:33:53;;;;;;;;;4.50;4.00;;;;;;;;5154474;27;50611;-65
2021/12/07 14:36:23;;;;;;;;;9.75;6.75;;;;;;;;5136268;27;49906;-67
2021/12/07 14:38:49;;;;;;;;;6.00;6.00;;;;;;;;5153806;27;49664;-66
2021/12/07 14:41:16;;;;;;;;;3.50;3.50;;;;;;;;5152273;27;49806;-65
2021/12/07 14:43:41;;;;;;;;;6.25;3.50;;;;;;;;5153514;27;50421;-69
2021/12/07 14:46:11;;;;;;;;;6.50;6.00;;;;;;;;5152491;27;49559;-66
2021/12/07 14:48:37;;;;;;;;;10.00;3.75;;;;;;;;5154039;27;49718;-65
2021/12/07 14:51:04;;;;;;;;;7.25;6.00;;;;;;;;5153143;27;50056;-66
2021/12/07 14:53:37;;;;;;;;;7.75;6.00;;;;;;;;5153504;27;49688;-66
2021/12/07 14:56:03;;;;;;;;;6.00;3.50;;;;;;;;5133470;27;49916;-66
2021/12/07 14:58:32;;;;;;;;;3.00;3.00;;;;;;;;5153013;27;49628;-65
2021/12/07 15:00:58;;;;;;;;;3.50;3.50;;;;;;;;5152544;27;49880;-64
2021/12/07 15:03:32;;;;;;;;;6.50;3.25;;;;;;;;5153377;27;50646;-64
2021/12/07 15:05:57;;;;;;;;;3.75;1.75;;;;;;;;5112949;27;49684;-62
2021/12/07 15:08:22;;;;;;;;;5.00;5.00;;;;;;;;5050239;28;50070;-63
2021/12/07 15:10:48;;;;;;;;;5.00;4.00;;;;;;;;5046338;28;49771;-67
2021/12/07 15:13:13;;;;;;;;;3.75;3.75;;;;;;;;5048973;28;50401;-67
2021/12/07 15:15:39;;;;;;;;;4.00;2.00;;;;;;;;5046956;28;49524;-67
2021/12/07 15:18:10;;;;;;;;;7.00;6.25;;;;;;;;5052157;28;49698;-67
2021/12/07 15:20:36;;;;;;;;;5.50;2.75;;;;;;;;5048377;28;49565;-69
2021/12/07 15:23:01;;;;;;;;;6.00;5.50;;;;;;;;5047038;28;50169;-67
2021/12/07 15:25:28;;;;;;;;;5.50;3.75;;;;;;;;5047103;28;49522;-65
2021/12/07 15:27:53;;;;;;;;;4.00;3.75;;;;;;;;5043648;28;50196;-63
2021/12/07 15:30:19;;;;;;;;;5.75;5.75;;;;;;;;5034287;27;49925;-63
2021/12/07 15:32:44;;;;;;;;;5.25;2.75;;;;;;;;5042246;28;50519;-63
2021/12/07 15:35:18;;;;;;;;;3.75;2.75;;;;;;;;5041948;28;49794;-63
2021/12/07 15:37:44;;;;;;;;;4.25;2.75;;;;;;;;5029500;28;49745;-63
2021/12/07 15:40:11;;;;;;;;;3.00;2.50;;;;;;;;5026792;28;49603;-63
2021/12/07 15:42:37;;;;;;;;;4.75;4.75;;;;;;;;5025183;28;49683;-67
2021/12/07 15:45:10;;;;;;;;;4.00;3.50;;;;;;;;5027045;28;49902;-68
2021/12/07 15:47:38;;;;;;;;;7.25;2.25;;;;;;;;5029697;28;49612;-67
2021/12/07 15:50:10;;;;;;;;;7.00;6.50;;;;;;;;5029737;28;50044;-67
2021/12/07 15:52:37;;;;;;;;;6.50;3.75;;;;;;;;5047382;28;49671;-67
2021/12/07 15:55:16;;;;;;;;;7.00;5.00;;;;;;;;5052463;28;49771;-66
2021/12/07 15:57:50;;;;;;;;;4.25;3.75;;;;;;;;5070505;28;49735;-62
2021/12/07 16:00:27;;;;;;;;;6.75;6.00;;;;;;;;5070581;28;49791;-63
2021/12/07 16:02:52;;;;;;;;;6.50;6.50;;;;;;;;5068564;28;49752;-62
2021/12/07 16:05:18;;;;;;;;;7.75;2.00;;;;;;;;5070194;28;49909;-62
2021/12/07 16:07:44;;;;;;;;;8.25;5.00;;;;;;;;5093310;27;49592;-63
2021/12/07 16:10:12;;;;;;;;;1.75;1.75;;;;;;;;5115270;27;50002;-63